Latest Weather Observations for Goulburn Airport

IDN60901

Issued at 11:21 am EDT Thursday 1 December 2022 (issued every 10 minutes, with the page automatically refreshed every 10 minutes)

About weather observations | Map of Canberra area stations | Latest observations for Canberra area | Other Formats
Station Details ID: 070330 Name: GOULBURN AIRPORT AWS Lat: -34.81 Lon: 149.73 Height: 640.0 m
Data from the previous 72 hours. | See also: Recent months at Goulburn Airport
Date/Time
EDT
Temp
°C
App
Temp
°C
Dew
Point
°C
Rel
Hum
%
Delta-T
°C
Wind Press
QNH
hPa
Press
MSL
hPa
Rain since
9am
mm
Dir  Spd
km/h
Gust
km/h
Spd
kts
Gust
kts
01/11:00am 19.3 16.1 9.8 54 5.2 E 17 26 9 14 1017.4 1015.0 0.0
01/10:30am 18.5 14.8 9.6 56 4.9 ESE 19 26 10 14 1017.5 1015.9 0.0
01/10:00am 17.2 13.7 8.9 58 4.4 ENE 17 24 9 13 1017.5 1015.9 0.0
01/09:30am 17.0 12.5 8.4 57 4.5 ENE 22 32 12 17 1017.6 1016.0 0.0
01/09:00am 15.1 11.8 9.7 70 2.9 NE 17 22 9 12 1017.8 1016.2 0.0
01/08:46am 14.9 11.5 9.3 69 3.0 ENE 17 24 9 13 1017.7 1016.1 0.0
01/08:30am 14.2 10.6 9.8 75 2.3 ENE 19 26 10 14 1017.6 1016.0 0.0
01/08:00am 13.7 10.8 10.9 83 1.5 ENE 17 24 9 13 1017.3 1015.6 0.0
01/07:45am 13.2 10.3 11.1 87 1.1 ENE 17 24 9 13 1017.1 1015.4 0.0
01/07:30am 13.0 10.7 11.6 91 0.8 ENE 15 19 8 10 1017.0 1015.3 0.0
01/07:00am 10.5 9.3 10.3 99 0.1 ESE 7 11 4 6 1016.7 1015.0 0.0
01/06:30am 8.7 6.7 8.6 99 0.1 ESE 9 11 5 6 1016.6 1014.9 0.0
01/06:00am 6.7 4.6 6.6 99 0.0 ESE 7 9 4 5 1016.3 1014.7 0.0
01/05:30am 6.8 4.3 6.7 99 0.0 SE 9 11 5 6 1016.2 1014.6 0.0
01/05:00am 7.3 5.3 7.2 99 0.0 ESE 7 9 4 5 1016.1 1014.5 0.0
01/04:30am 7.5 5.5 7.2 98 0.1 NE 7 9 4 5 1015.8 1014.1 0.0
01/04:00am 8.1 7.6 7.7 97 0.2 CALM 0 0 0 0 1016.2 1014.6 0.0
01/03:31am 9.1 7.4 8.5 96 0.3 NNE 7 9 4 5 1016.2 1014.6 0.0
01/03:30am 9.2 7.6 8.6 96 0.3 NNE 7 9 4 5 1016.2 1014.6 0.0
01/03:00am 9.7 7.7 8.8 94 0.5 NE 9 13 5 7 1016.3 1014.7 0.0
01/02:30am 10.6 8.3 10.3 98 0.2 NE 13 19 7 10 1016.3 1014.7 0.0
01/02:00am 8.8 7.1 8.2 96 0.3 E 7 9 4 5 1016.4 1014.8 0.0
01/01:57am 8.5 6.7 7.9 96 0.3 E 7 9 4 5 1016.6 1014.9 0.0
01/01:30am 8.8 6.9 7.6 92 0.6 ENE 7 9 4 5 1016.7 1015.0 0.0
01/01:00am 9.9 7.5 8.8 93 0.6 ENE 11 15 6 8 1017.0 1015.3 0.0
01/12:30am 10.3 8.0 8.9 91 0.7 ENE 11 15 6 8 1017.3 1015.6 0.0
01/12:00am 10.8 8.2 9.4 91 0.7 ENE 13 17 7 9 1017.5 1015.9 0.0
 
Date/Time
EDT
Temp
°C
App
Temp
°C
Dew
Point
°C
Rel
Hum
%
Delta-T
°C
Wind Press
QNH
hPa
Press
MSL
hPa
Rain since
9am
mm
Dir  Spd
km/h
Gust
km/h
Spd
kts
Gust
kts
30/11:30pm 10.8 8.7 9.9 94 0.5 E 11 17 6 9 1017.5 1015.9 0.0
30/11:00pm 11.0 9.2 9.6 91 0.7 E 9 13 5 7 1017.6 1016.0 0.0
30/10:30pm 12.1 10.1 10.3 89 1.0 E 11 17 6 9 1017.5 1015.9 0.0
30/10:00pm 13.0 10.1 11.1 88 1.0 E 17 20 9 11 1017.6 1016.0 0.0
30/09:30pm 12.6 10.2 11.3 92 0.7 E 15 20 8 11 1017.5 1015.9 0.0
30/09:00pm 11.2 9.4 9.3 88 1.0 ESE 9 11 5 6 1017.0 1015.3 0.0
30/08:30pm 12.7 11.0 9.9 83 1.5 E 9 13 5 7 1016.6 1014.9 0.0
30/08:00pm 14.7 12.0 10.5 76 2.3 E 15 19 8 10 1016.3 1014.7 0.0
30/07:30pm 16.0 13.3 10.3 69 3.1 ENE 15 19 8 10 1015.9 1014.2 0.0
30/07:00pm 17.5 14.4 10.4 63 3.9 E 17 22 9 12 1015.5 1013.8 0.0
30/06:30pm 17.9 14.2 10.0 60 4.3 ENE 20 28 11 15 1015.6 1013.9 0.0
30/06:00pm 18.5 14.6 9.6 56 4.9 E 20 24 11 13 1015.4 1013.7 0.0
30/05:30pm 19.9 16.3 10.0 53 5.5 E 19 24 10 13 1015.4 1013.7 0.0
30/05:00pm 20.6 17.5 10.4 52 5.7 E 17 24 9 13 1015.2 1013.5 0.0
30/04:30pm 20.3 16.9 10.4 53 5.5 E 19 28 10 15 1015.4 1013.7 0.0
30/04:00pm 19.9 17.3 9.5 51 5.7 E 13 20 7 11 1015.5 1013.8 0.0
30/03:30pm 19.3 15.8 8.9 51 5.6 E 17 24 9 13 1015.6 1013.9 0.0
30/03:00pm 20.4 17.0 9.3 49 6.1 ENE 17 24 9 13 1015.7 1014.0 0.0
30/02:30pm 19.7 17.1 9.3 51 5.7 ENE 13 24 7 13 1016.0 1014.3 0.0
30/02:00pm 19.0 16.1 9.5 54 5.2 E 15 20 8 11 1016.2 1014.6 0.0
30/01:30pm 20.2 17.7 9.7 51 5.8 NE 13 26 7 14 1016.8 1015.1 0.0
30/01:00pm 20.0 16.9 9.0 49 6.0 NE 15 26 8 14 1017.2 1015.5 0.0
30/12:30pm 19.8 18.4 9.7 52 5.6 NE 7 19 4 10 1017.3 1015.6 0.0
30/12:00pm 18.2 15.4 8.5 53 5.2 NNE 13 20 7 11 1017.6 1016.0 0.0
30/11:30am 17.5 14.7 8.4 55 4.8 ENE 13 24 7 13 1018.0 1016.4 0.0
30/11:00am 17.8 15.6 9.2 57 4.6 ENE 11 20 6 11 1018.1 1016.5 0.0
30/10:30am 17.0 14.3 8.9 59 4.3 NE 13 24 7 13 1018.5 1016.8 0.0
30/10:00am 16.2 13.0 8.4 60 4.1 NE 15 24 8 13 1018.8 1017.2 0.0
30/09:30am 15.7 11.9 8.9 64 3.6 NE 19 30 10 16 1019.0 1017.4 0.0
30/09:00am 14.9 10.9 8.4 65 3.4 NE 19 24 10 13 1019.2 1017.6 0.0
30/08:30am 13.4 9.7 9.3 76 2.2 NE 19 26 10 14 1019.3 1017.7 0.0
30/08:19am 13.4 9.4 8.9 74 2.3 NE 20 26 11 14 1019.2 1017.6 0.0
30/08:00am 12.3 8.6 7.8 74 2.3 NE 17 26 9 14 1019.2 1017.6 0.0
30/07:30am 12.1 9.6 9.7 85 1.3 NE 13 19 7 10 1019.2 1017.6 0.0
30/07:00am 11.4 9.2 9.5 88 1.0 NE 11 13 6 7 1019.2 1017.6 0.0
30/06:30am 10.9 8.3 9.5 91 0.7 NNE 13 17 7 9 1018.9 1017.3 0.0
30/06:00am 10.8 8.2 9.2 90 0.8 NNE 13 17 7 9 1018.7 1017.0 0.0
30/05:30am 10.9 8.2 9.0 88 1.0 NE 13 22 7 12 1018.6 1016.9 0.0
30/05:00am 10.9 7.4 8.8 87 1.1 NE 17 20 9 11 1018.4 1016.7 0.0
30/04:30am 10.8 8.5 8.9 88 1.0 ENE 11 15 6 8 1018.4 1016.7 0.0
30/04:00am 10.5 8.5 8.6 88 1.0 ENE 9 15 5 8 1018.1 1016.5 0.0
30/03:30am 10.2 8.5 8.5 89 0.9 ENE 7 9 4 5 1018.4 1016.7 0.0
30/03:00am 10.4 8.2 8.0 85 1.2 ENE 9 13 5 7 1018.5 1016.8 0.0
30/02:30am 10.9 7.7 8.5 85 1.2 ENE 15 19 8 10 1018.8 1017.2 0.0
30/02:00am 11.0 7.8 8.4 84 1.3 ENE 15 22 8 12 1018.9 1017.3 0.0
30/01:30am 11.1 7.8 8.1 82 1.5 ENE 15 20 8 11 1018.9 1017.3 0.0
30/01:00am 11.3 8.4 8.3 82 1.5 ENE 13 20 7 11 1018.9 1017.3 0.0
30/12:31am 11.3 8.7 7.8 79 1.8 ENE 11 22 6 12 1019.0 1017.4 0.0
30/12:30am 11.3 8.3 7.8 79 1.8 ENE 13 22 7 12 1019.0 1017.4 0.0
30/12:10am 11.3 7.9 7.6 78 1.9 E 15 20 8 11 1018.9 1017.3 0.0
30/12:00am 11.3 8.3 7.6 78 1.8 ENE 13 19 7 10 1018.9 1017.3 0.0
 
Date/Time
EDT
Temp
°C
App
Temp
°C
Dew
Point
°C
Rel
Hum
%
Delta-T
°C
Wind Press
QNH
hPa
Press
MSL
hPa
Rain since
9am
mm
Dir  Spd
km/h
Gust
km/h
Spd
kts
Gust
kts
29/11:30pm 11.2 7.2 8.2 82 1.5 E 19 26 10 14 1018.7 1017.0 0.0
29/11:00pm 11.7 7.7 8.4 80 1.7 E 19 26 10 14 1018.6 1016.9 0.0
29/10:30pm 11.8 7.2 8.3 79 1.8 E 22 30 12 16 1018.5 1016.8 0.0
29/10:00pm 12.0 8.1 8.5 79 1.8 E 19 26 10 14 1018.3 1016.6 0.0
29/09:30pm 12.2 8.4 8.9 80 1.7 E 19 26 10 14 1017.9 1016.3 0.0
29/09:00pm 12.4 8.6 9.1 80 1.7 E 19 26 10 14 1017.4 1015.8 0.0
29/08:59pm 12.4 8.6 9.1 80 1.7 E 19 26 10 14 1017.4 1015.8 0.0
29/08:30pm 12.6 8.8 8.9 78 1.9 E 19 26 10 14 1017.1 1015.4 0.0
29/08:00pm 12.8 8.4 8.9 77 2.0 E 22 30 12 16 1016.6 1014.9 0.0
29/07:30pm 13.5 10.1 9.2 75 2.3 ENE 17 24 9 13 1016.0 1014.3 0.0
29/07:00pm 15.0 11.0 9.1 68 3.1 E 20 28 11 15 1015.3 1013.6 0.0
29/06:30pm 16.4 11.4 9.6 64 3.7 E 26 33 14 18 1014.6 1012.9 0.0
29/06:00pm 18.0 13.6 10.4 61 4.2 E 24 33 13 18 1014.0 1012.3 0.0
29/05:52pm 18.0 12.6 9.6 58 4.6 E 28 39 15 21 1013.7 1012.0 0.0
29/05:30pm 20.5 18.1 4.5 35 8.0 N 6 11 3 6 1013.5 1011.8 0.0
29/05:00pm 20.8 16.9 5.2 36 7.9 WNW 15 22 8 12 1013.1 1011.4 0.0
29/04:30pm 20.9 17.8 5.7 37 7.8 NW 11 20 6 11 1013.1 1011.4 0.0
29/04:00pm 20.7 17.5 5.1 36 7.9 WNW 11 19 6 10 1013.3 1011.5 0.0
29/03:30pm 21.3 18.5 6.8 39 7.6 NNW 11 20 6 11 1013.3 1011.5 0.0
29/03:00pm 20.7 16.7 5.1 36 7.9 NW 15 22 8 12 1013.3 1011.5 0.0
29/02:30pm 20.0 16.9 5.6 39 7.3 WNW 11 19 6 10 1013.3 1011.5 0.0
29/02:00pm 20.4 16.7 6.4 40 7.3 W 15 24 8 13 1013.5 1011.8 0.0
29/01:30pm 20.2 16.9 6.5 41 7.1 NW 13 20 7 11 1013.7 1012.0 0.0
29/01:00pm 20.1 15.5 5.7 39 7.4 W 19 32 10 17 1013.6 1011.9 0.0
29/12:30pm 19.4 15.0 6.5 43 6.7 WNW 19 28 10 15 1013.6 1011.9 0.0
29/12:00pm 19.0 14.0 4.4 38 7.2 WNW 20 32 11 17 1013.6 1011.9 0.0
29/11:30am 18.8 14.5 5.3 41 6.8 WSW 17 28 9 15 1013.7 1012.0 0.0
29/11:00am 17.7 13.1 5.6 45 6.1 WNW 19 32 10 17 1013.6 1011.9 0.0
29/10:30am 17.2 12.1 4.2 42 6.3 WSW 20 26 11 14 1013.6 1011.9 0.0
29/10:00am 17.0 12.3 5.9 48 5.6 W 20 28 11 15 1013.6 1011.9 0.0
29/09:30am 15.8 11.0 5.4 50 5.1 W 20 28 11 15 1013.5 1011.8 0.0
29/09:00am 15.1 9.9 5.3 52 4.8 W 22 30 12 16 1013.1 1011.4 0.2
29/08:30am 14.0 9.4 6.6 61 3.7 W 20 28 11 15 1013.0 1011.3 0.2
29/08:00am 12.8 7.7 6.2 64 3.2 W 22 26 12 14 1012.9 1011.2 0.2
29/07:30am 11.8 8.2 6.9 72 2.4 W 15 20 8 11 1012.7 1011.0 0.2
29/07:00am 10.4 6.6 6.0 74 2.1 WSW 15 19 8 10 1012.4 1010.7 0.2
29/06:30am 8.9 5.1 5.6 80 1.6 WNW 15 19 8 10 1011.9 1010.1 0.2
29/06:00am 7.9 3.6 5.2 83 1.3 WNW 17 20 9 11 1011.2 1009.5 0.2
29/05:30am 7.3 3.3 5.0 85 1.1 WNW 15 20 8 11 1010.8 1009.1 0.2
29/05:00am 7.4 3.1 5.4 87 0.9 WNW 17 20 9 11 1010.4 1008.6 0.2
29/04:30am 7.2 4.0 5.0 86 1.0 NW 11 15 6 8 1010.5 1008.7 0.2
29/04:00am 7.5 2.8 5.3 86 1.0 NW 19 22 10 12 1010.0 1008.2 0.2
29/03:30am 7.7 3.0 5.2 84 1.2 NW 19 22 10 12 1010.0 1008.2 0.2
29/03:00am 8.0 3.3 5.3 83 1.3 NW 19 22 10 12 1010.2 1008.4 0.2
29/02:30am 8.2 3.6 5.5 83 1.3 WNW 19 24 10 13 1010.2 1008.4 0.2
29/02:00am 6.4 4.8 4.6 88 0.8 W 2 15 1 8 1010.1 1008.3 0.2
29/01:30am 8.0 4.4 5.1 82 1.3 WNW 13 17 7 9 1010.4 1008.6 0.2
29/01:00am 8.5 4.6 5.4 81 1.5 WNW 15 17 8 9 1010.4 1008.6 0.2
29/12:30am 8.4 4.5 5.5 82 1.4 WNW 15 15 8 8 1010.5 1008.7 0.2
29/12:00am 8.9 5.2 6.3 84 1.2 WNW 15 17 8 9 1010.5 1008.7 0.2
 
Date/Time
EDT
Temp
°C
App
Temp
°C
Dew
Point
°C
Rel
Hum
%
Delta-T
°C
Wind Press
QNH
hPa
Press
MSL
hPa
Rain since
9am
mm
Dir  Spd
km/h
Gust
km/h
Spd
kts
Gust
kts
28/11:30pm 6.9 5.2 5.7 92 0.6 W 4 6 2 3 1010.5 1008.7 0.2
28/11:00pm 7.6 5.8 5.6 87 0.9 NW 4 7 2 4 1010.4 1008.6 0.2
28/10:30pm 8.3 6.0 5.9 85 1.1 NW 7 11 4 6 1010.2 1008.4 0.2
28/10:00pm 8.6 5.9 5.5 81 1.5 W 9 9 5 5 1010.0 1008.2 0.2
28/09:30pm 9.1 6.3 5.3 77 1.8 WNW 9 11 5 6 1009.4 1007.7 0.2
28/09:00pm 10.7 8.8 6.6 76 2.0 W 6 7 3 4 1009.0 1007.2 0.2
28/08:30pm 11.5 8.5 5.8 68 2.8 W 11 13 6 7 1008.9 1007.1 0.2
28/08:00pm 13.9 11.3 6.3 60 3.8 W 9 15 5 8 1008.6 1006.8 0.2
28/07:30pm 16.0 12.0 6.7 54 4.7 W 17 22 9 12 1008.1 1006.4 0.2
28/07:00pm 17.4 12.4 6.6 49 5.5 WNW 22 35 12 19 1007.5 1005.7 0.2
28/06:30pm 18.2 12.0 6.1 45 6.2 WNW 28 39 15 21 1007.2 1005.4 0.2
28/06:00pm 18.9 11.9 6.1 43 6.6 WNW 32 44 17 24 1006.8 1005.0 0.2
28/05:30pm 19.4 12.3 5.5 40 7.0 WNW 32 39 17 21 1006.6 1004.8 0.2
28/05:00pm 20.1 13.1 6.1 40 7.2 W 32 44 17 24 1006.6 1004.8 0.2
28/04:37pm 20.2 13.7 6.5 41 7.1 WNW 30 48 16 26 1006.4 1004.6 0.2
28/04:30pm 20.5 13.8 7.2 42 7.0 WNW 32 46 17 25 1006.6 1004.8 0.2
28/04:00pm 20.5 13.8 5.7 38 7.6 WNW 30 39 16 21 1006.6 1004.8 0.2
28/03:30pm 20.6 13.7 6.5 40 7.3 WNW 32 46 17 25 1006.7 1004.9 0.2
28/03:08pm 20.6 14.4 6.2 39 7.5 WNW 28 46 15 25 1006.7 1004.9 0.2
28/03:00pm 20.5 13.9 6.1 39 7.5 W 30 43 16 23 1006.8 1005.0 0.2
28/02:30pm 20.9 14.1 5.3 36 8.0 WNW 30 41 16 22 1006.9 1005.1 0.2
28/02:00pm 20.6 14.5 6.5 40 7.4 WNW 28 41 15 22 1007.0 1005.2 0.2
28/01:30pm 20.3 14.0 5.9 39 7.4 WNW 28 39 15 21 1007.1 1005.3 0.2
28/01:00pm 20.2 13.5 5.8 39 7.4 W 30 46 16 25 1007.3 1005.5 0.2
28/12:55pm 20.6 14.7 7.6 43 6.9 WNW 28 46 15 25 1007.3 1005.5 0.2
28/12:30pm 19.6 13.7 6.0 41 7.0 WNW 26 41 14 22 1007.4 1005.6 0.2
28/12:00pm 19.2 13.9 6.7 44 6.5 W 24 32 13 17 1007.5 1005.7 0.2
28/11:30am 18.5 13.2 6.7 46 6.1 W 24 37 13 20 1007.5 1005.7 0.2

Latest Capital City Observations: Canberra | Sydney | Melbourne | Brisbane | Adelaide | Perth | Hobart | Darwin

Other formats

Comma delimited format used in spreadsheet applications
http://www.bom.gov.au/fwo/IDN60903/IDN60903.95716.axf

JavaScript Object Notation format (JSON) in row-major order
http://www.bom.gov.au/fwo/IDN60903/IDN60903.95716.json

Data quality

Most of these data are generated automatically and are frequently updated. Quality checks on data are not normally performed. It is possible for incorrect values to appear. Refer to information at About Latest Weather Observations and please check the disclaimer before using these data.